San Francisco, CA

9:11 AM PDT on August 20, 2014 (GMT -0700)
San Francisco International | Change Station
CLOSE
Current Station
Airport
Location: San Francisco,
Elevation: 16 ft
Nearby Weather Stations

Elev 16 ft 37.62 °N, 122.37 °W | Updated 15 minutes ago

Mostly Cloudy
Mostly Cloudy
65 °F
Feels Like 65 °F
N
10
Wind Variable Wind from SSW

Today
High -- | Low -- °F
--% Chance of Precip.
Yesterday
High -- | Low -- °F
Precip. -- in
6:29 AM 7:55 PM
Waning Crescent, 21% visible
Pressure 29.91 in
Visibility 10.0 miles
Clouds Mostly Cloudy 2000 ft
Dew Point 57 °F
Humidity 75%
Rainfall 0.00 in
Snow Depth Not available.
UV 1 out of 12
Pollen 4.90 out of 12
Ozone Good
PM2.5 Good
Flu Activity Not available.
METAR KSFO 201556Z 20009KT 10SM BKN020 18/14 A2991 RMK AO2 SLP129 T01830139 $

More Conditions Fewer Conditions

Pressure 29.91 in
Visibility 10.0 miles
Clouds Mostly Cloudy 2000 ft
Dew Point 57 °F
Humidity 75%
Rainfall 0.00 in
Snow Depth Not available.
UV 1 out of 12
Pollen 4.90 out of 12
Ozone Good
PM2.5 Good
Flu Activity Not available.
METAR KSFO 201556Z 20009KT 10SM BKN020 18/14 A2991 RMK AO2 SLP129 T01830139 $

More Conditions Fewer Conditions

10-Day Weather Forecast

Almanac

Astronomy

Aug. 20, 2014 Rise Set
Actual Time 6:29 AM PDT 7:55 PM PDT
Civil Twilight 6:02 AM PDT 8:22 PM PDT
Nautical Twilight 5:29 AM PDT 8:55 PM PDT
Astronomical Twilight 4:54 AM PDT 9:30 PM PDT
Moon 2:16 AM PDT 4:42 PM PDT
Length of Visible Light 14h 20m
Length of Day
13h 25m
Tomorrow will be 2m 12s shorter.
Waning Crescent, 21% of the Moon is Illuminated
Today
Waning Crescent
Aug 25
New
Sep 2
First Quarter
Sep 8
Full
Sep 15
Last Quarter

Today's Extremes

State Highs State Lows

Community

WunderPhotos

Upload Photos

1,745,684 photos uploaded!

Nearby

Air Quality

  Air Quality AQ Index Pollutant
Yesterday Good
OZONE
Yesterday Good
PM2.5
Current Good
OZONE
Current Good
PM2.5
Wednesday Good
OZONE
Thursday Good
OZONE
Friday Good
OZONE
Saturday Good
OZONE
Sunday Good
OZONE

Snow Depth

Station Depth Elevation
Blue Lakes 0 in 8000 ft
Forestdale Creek 0 in 8029 ft
Echo Peak 1 in 7800 ft
Ebbetts Pass 0 in 8700 ft
Fallen Leaf 0 in 6300 ft

Earthquake Activity

City Distance Mag. Time & Date
King City, California 123 miles 2.7 10:26 PM PDT
2014-08-15
King City, California 123 miles 2.9 8:01 PM PDT
2014-08-14
The Geysers, California 82 miles 2.6 8:55 PM PDT
2014-08-13
Upper Lake, California 122 miles 2.9 3:32 PM PDT
2014-08-13
Minimum magnitude displayed is 2.5.

Coastal Water Temperatures

Place Temperature
No Stations Reporting

Nearby Weather Stations